Time;durP1;ratioP1;P1;durP2;ratioP2;P2;SDS_P1;SDS_P2;PMS_P1;PMS_P2;Temp;Humidity;BMP_temperature;BMP_pressure;BME280_temperature;BME280_humidity;BME280_pressure;Samples;Min_cycle;Max_cycle;Signal;HPM_P1;HPM_P2
2023/05/26 00:00:06;;;;;;;56.90;9.80;;;;;;;;;;5034888;28;20032;-73
2023/05/26 00:02:36;;;;;;;55.25;9.13;;;;;;;;;;5028878;28;20029;-73
2023/05/26 00:05:02;;;;;;;60.13;8.48;;;;;;;;;;5034673;28;20059;-73
2023/05/26 00:07:28;;;;;;;52.25;8.55;;;;;;;;;;5034614;28;20029;-74
2023/05/26 00:09:54;;;;;;;55.20;8.65;;;;;;;;;;5033734;28;20037;-74
2023/05/26 00:12:20;;;;;;;42.35;7.72;;;;;;;;;;5033422;28;20032;-73
2023/05/26 00:14:47;;;;;;;56.28;8.85;;;;;;;;;;5033838;28;20474;-73
2023/05/26 00:17:13;;;;;;;47.20;8.18;;;;;;;;;;5033587;28;20026;-72
2023/05/26 00:19:39;;;;;;;53.83;7.90;;;;;;;;;;5033568;28;20030;-73
2023/05/26 00:22:05;;;;;;;55.30;8.02;;;;;;;;;;5033106;28;20088;-73
2023/05/26 00:24:31;;;;;;;45.80;9.35;;;;;;;;;;5033724;28;20029;-73
2023/05/26 00:26:57;;;;;;;42.42;8.15;;;;;;;;;;5033366;28;20037;-73
2023/05/26 00:29:23;;;;;;;117.63;31.23;;;;;;;;;;5033540;28;20029;-72
2023/05/26 00:31:49;;;;;;;53.45;8.82;;;;;;;;;;5033263;28;20129;-73
2023/05/26 00:34:15;;;;;;;50.30;8.27;;;;;;;;;;5033226;28;20195;-73
2023/05/26 00:36:42;;;;;;;62.13;8.88;;;;;;;;;;5033278;28;20029;-73
2023/05/26 00:39:08;;;;;;;49.65;8.07;;;;;;;;;;5033276;28;20383;-74
2023/05/26 00:41:34;;;;;;;47.25;7.57;;;;;;;;;;5033150;28;20155;-74
2023/05/26 00:44:01;;;;;;;50.83;8.88;;;;;;;;;;5032817;28;20022;-74
2023/05/26 00:46:28;;;;;;;55.65;8.68;;;;;;;;;;5033569;28;20021;-73
2023/05/26 00:48:54;;;;;;;60.13;8.98;;;;;;;;;;5033666;28;20025;-74
2023/05/26 00:51:20;;;;;;;56.08;9.20;;;;;;;;;;5033566;28;20021;-75
2023/05/26 00:53:46;;;;;;;48.65;8.45;;;;;;;;;;5033164;28;20525;-74
2023/05/26 00:56:16;;;;;;;64.15;8.90;;;;;;;;;;5033825;28;20071;-73
2023/05/26 00:58:43;;;;;;;47.17;7.07;;;;;;;;;;5033642;28;20025;-74
2023/05/26 01:01:10;;;;;;;46.33;8.13;;;;;;;;;;5031717;28;20040;-73
2023/05/26 01:03:39;;;;;;;42.05;7.53;;;;;;;;;;5033029;28;20037;-74
2023/05/26 01:06:05;;;;;;;47.38;7.47;;;;;;;;;;5032804;28;20045;-74
2023/05/26 01:08:32;;;;;;;53.10;7.65;;;;;;;;;;5032996;28;20377;-73
2023/05/26 01:11:04;;;;;;;52.97;8.18;;;;;;;;;;5031577;28;20361;-74
2023/05/26 01:13:34;;;;;;;49.90;7.90;;;;;;;;;;5032766;28;20053;-73
2023/05/26 01:16:04;;;;;;;47.58;7.85;;;;;;;;;;5032551;28;20028;-73
2023/05/26 01:18:42;;;;;;;50.88;7.55;;;;;;;;;;5033012;28;20044;-74
2023/05/26 01:21:10;;;;;;;53.00;7.70;;;;;;;;;;5032784;28;20451;-73
2023/05/26 01:23:48;;;;;;;42.97;7.80;;;;;;;;;;5032794;28;20483;-73
2023/05/26 01:26:15;;;;;;;56.75;8.15;;;;;;;;;;5032526;28;20128;-73
2023/05/26 01:28:41;;;;;;;44.65;7.25;;;;;;;;;;5032596;28;20563;-72
2023/05/26 01:31:08;;;;;;;52.90;9.02;;;;;;;;;;5032348;28;20029;-73
2023/05/26 01:33:35;;;;;;;47.72;7.40;;;;;;;;;;5032094;28;20430;-74
2023/05/26 01:36:01;;;;;;;54.10;9.07;;;;;;;;;;5032424;28;20104;-73
2023/05/26 01:38:27;;;;;;;44.20;7.90;;;;;;;;;;5032441;28;20483;-74
2023/05/26 01:40:59;;;;;;;41.38;6.53;;;;;;;;;;5032567;28;20030;-73
2023/05/26 01:43:38;;;;;;;52.20;9.35;;;;;;;;;;5032966;28;20048;-73
2023/05/26 01:46:09;;;;;;;50.80;8.23;;;;;;;;;;5032226;28;20036;-73
2023/05/26 01:48:36;;;;;;;56.55;9.07;;;;;;;;;;5031949;28;20558;-73
2023/05/26 01:51:06;;;;;;;59.85;9.82;;;;;;;;;;5031929;28;20140;-72
2023/05/26 01:53:33;;;;;;;54.13;9.45;;;;;;;;;;5031886;28;20064;-73
2023/05/26 01:55:59;;;;;;;51.50;7.50;;;;;;;;;;5031900;28;20025;-73
2023/05/26 01:58:26;;;;;;;44.40;8.48;;;;;;;;;;5031655;28;20021;-73
2023/05/26 02:00:55;;;;;;;49.42;7.45;;;;;;;;;;5032175;28;20025;-72
2023/05/26 02:03:21;;;;;;;58.72;8.95;;;;;;;;;;5031603;28;20052;-72
2023/05/26 02:05:47;;;;;;;53.00;8.18;;;;;;;;;;5031624;28;20036;-73
2023/05/26 02:08:13;;;;;;;44.55;7.90;;;;;;;;;;5030033;28;20025;-73
2023/05/26 02:10:39;;;;;;;40.58;7.25;;;;;;;;;;5031330;28;20052;-74
2023/05/26 02:13:06;;;;;;;55.80;9.35;;;;;;;;;;5030360;28;20537;-73
2023/05/26 02:15:32;;;;;;;46.88;7.85;;;;;;;;;;5031368;28;20030;-74
2023/05/26 02:17:58;;;;;;;51.13;8.48;;;;;;;;;;5031367;28;20029;-74
2023/05/26 02:20:25;;;;;;;62.80;8.73;;;;;;;;;;5031320;28;20033;-74
2023/05/26 02:22:51;;;;;;;55.30;8.45;;;;;;;;;;5031026;28;20444;-73
2023/05/26 02:25:17;;;;;;;48.28;8.18;;;;;;;;;;5031292;28;20022;-73
2023/05/26 02:27:43;;;;;;;58.00;8.50;;;;;;;;;;5031333;28;20383;-74
2023/05/26 02:30:09;;;;;;;44.60;7.20;;;;;;;;;;5032769;28;20029;-73
2023/05/26 02:32:36;;;;;;;45.25;8.25;;;;;;;;;;5034974;28;20558;-73
2023/05/26 02:35:03;;;;;;;44.72;7.43;;;;;;;;;;5033434;28;20051;-75
2023/05/26 02:37:29;;;;;;;62.42;9.50;;;;;;;;;;5035315;28;20108;-74
2023/05/26 02:39:56;;;;;;;52.60;8.27;;;;;;;;;;5035178;28;20029;-74
2023/05/26 02:42:22;;;;;;;57.60;9.32;;;;;;;;;;5033210;28;20035;-73
2023/05/26 02:44:48;;;;;;;51.05;9.15;;;;;;;;;;5032990;28;20092;-74
2023/05/26 02:47:14;;;;;;;48.03;7.85;;;;;;;;;;5033959;28;20022;-75
2023/05/26 02:49:40;;;;;;;54.67;8.43;;;;;;;;;;5034728;28;20583;-74
2023/05/26 02:52:06;;;;;;;55.28;8.55;;;;;;;;;;5034199;28;20108;-75
2023/05/26 02:54:32;;;;;;;58.45;8.88;;;;;;;;;;5034181;28;20025;-74
2023/05/26 02:56:58;;;;;;;55.80;8.80;;;;;;;;;;5036425;28;20030;-74
2023/05/26 02:59:24;;;;;;;53.60;8.38;;;;;;;;;;5033646;28;20033;-75
2023/05/26 03:01:50;;;;;;;58.33;8.85;;;;;;;;;;5031219;28;20029;-74
2023/05/26 03:04:16;;;;;;;49.30;7.72;;;;;;;;;;5030495;28;20036;-74
2023/05/26 03:06:42;;;;;;;51.90;8.63;;;;;;;;;;5030738;28;20467;-75
2023/05/26 03:09:08;;;;;;;49.83;7.78;;;;;;;;;;5029495;28;20087;-77
2023/05/26 03:11:34;;;;;;;50.05;9.10;;;;;;;;;;5030486;28;20041;-74
2023/05/26 03:14:00;;;;;;;55.00;9.23;;;;;;;;;;5030306;28;20407;-74
2023/05/26 03:16:27;;;;;;;53.53;9.50;;;;;;;;;;5030707;28;20033;-74
2023/05/26 03:18:53;;;;;;;54.85;8.00;;;;;;;;;;5030381;28;20029;-75
2023/05/26 03:21:19;;;;;;;59.90;8.88;;;;;;;;;;5030595;28;20067;-76
2023/05/26 03:23:45;;;;;;;57.00;8.98;;;;;;;;;;5033270;28;20025;-74
2023/05/26 03:26:11;;;;;;;49.45;8.20;;;;;;;;;;5037609;28;20028;-73
2023/05/26 03:28:37;;;;;;;59.35;8.80;;;;;;;;;;5037927;28;20419;-74
2023/05/26 03:31:04;;;;;;;48.33;8.77;;;;;;;;;;5037058;28;20033;-75
2023/05/26 03:33:31;;;;;;;48.90;8.55;;;;;;;;;;5036866;28;20025;-75
2023/05/26 03:36:00;;;;;;;57.13;9.00;;;;;;;;;;5037158;28;20018;-74
2023/05/26 03:38:26;;;;;;;59.95;8.38;;;;;;;;;;5037245;28;20037;-73
2023/05/26 03:40:52;;;;;;;59.95;8.25;;;;;;;;;;5037266;28;20098;-74
2023/05/26 03:43:18;;;;;;;50.55;8.50;;;;;;;;;;5038446;28;20088;-74
2023/05/26 03:45:44;;;;;;;59.50;9.95;;;;;;;;;;5038590;28;20483;-77
2023/05/26 03:48:12;;;;;;;51.80;8.95;;;;;;;;;;5039630;28;20033;-75
2023/05/26 03:50:39;;;;;;;47.20;7.90;;;;;;;;;;5038310;28;20394;-75
2023/05/26 03:53:05;;;;;;;58.80;9.52;;;;;;;;;;5037887;28;20476;-74
2023/05/26 03:55:33;;;;;;;47.63;8.90;;;;;;;;;;5038400;28;20506;-73
2023/05/26 03:57:59;;;;;;;61.75;8.95;;;;;;;;;;5038591;28;20104;-73
2023/05/26 04:00:30;;;;;;;51.38;8.98;;;;;;;;;;5037704;28;20049;-75
2023/05/26 04:02:56;;;;;;;44.75;8.45;;;;;;;;;;5037593;28;20021;-74
2023/05/26 04:05:22;;;;;;;60.15;8.82;;;;;;;;;;5038023;28;20022;-73
2023/05/26 04:07:49;;;;;;;49.35;9.48;;;;;;;;;;5037736;28;20444;-75
2023/05/26 04:10:15;;;;;;;57.63;9.57;;;;;;;;;;5037934;28;20087;-75
2023/05/26 04:12:41;;;;;;;69.88;9.15;;;;;;;;;;5037849;28;20029;-74
2023/05/26 04:15:09;;;;;;;46.22;8.18;;;;;;;;;;5037807;28;20068;-75
2023/05/26 04:17:35;;;;;;;50.22;9.10;;;;;;;;;;5037568;28;20034;-75
2023/05/26 04:20:01;;;;;;;54.55;8.55;;;;;;;;;;5037657;28;20033;-75
2023/05/26 04:22:27;;;;;;;58.03;8.05;;;;;;;;;;5037311;28;20022;-75
2023/05/26 04:24:52;;;;;;;54.95;8.35;;;;;;;;;;5037652;28;20071;-74
2023/05/26 04:27:18;;;;;;;54.35;8.55;;;;;;;;;;5037928;28;20029;-74
2023/05/26 04:29:45;;;;;;;53.88;8.32;;;;;;;;;;5037560;28;20480;-73
2023/05/26 04:32:11;;;;;;;60.85;9.65;;;;;;;;;;5037600;28;20049;-74
2023/05/26 04:34:38;;;;;;;56.38;8.85;;;;;;;;;;5037053;28;20391;-73
2023/05/26 04:37:04;;;;;;;53.72;9.35;;;;;;;;;;5034127;28;20029;-75
2023/05/26 04:39:31;;;;;;;63.20;8.80;;;;;;;;;;5034023;28;20022;-75
2023/05/26 04:41:58;;;;;;;58.85;8.27;;;;;;;;;;5034532;28;20047;-75
2023/05/26 04:44:24;;;;;;;48.72;9.07;;;;;;;;;;5034942;28;20038;-75
2023/05/26 04:46:52;;;;;;;59.20;9.00;;;;;;;;;;5035300;28;20045;-76
2023/05/26 04:49:22;;;;;;;61.08;9.48;;;;;;;;;;5035840;28;20039;-76
2023/05/26 04:51:48;;;;;;;58.95;9.48;;;;;;;;;;5034418;28;20021;-75
2023/05/26 04:54:14;;;;;;;57.67;8.52;;;;;;;;;;5035098;28;20029;-78
2023/05/26 04:56:40;;;;;;;51.55;7.95;;;;;;;;;;5034604;28;20033;-76
2023/05/26 04:59:07;;;;;;;57.97;9.43;;;;;;;;;;5027716;28;20026;-76
2023/05/26 05:01:33;;;;;;;53.63;9.07;;;;;;;;;;5034904;28;20017;-76
2023/05/26 05:03:59;;;;;;;68.10;14.52;;;;;;;;;;5034385;28;20026;-74
2023/05/26 05:06:25;;;;;;;61.25;10.88;;;;;;;;;;5033407;28;20069;-79
2023/05/26 05:08:51;;;;;;;50.25;8.90;;;;;;;;;;5033435;28;20033;-75
2023/05/26 05:11:17;;;;;;;49.08;8.98;;;;;;;;;;5034271;28;20033;-77
2023/05/26 05:13:43;;;;;;;50.50;8.27;;;;;;;;;;5034090;28;20033;-77
2023/05/26 05:16:09;;;;;;;59.55;9.80;;;;;;;;;;5032660;28;20060;-75
2023/05/26 05:18:35;;;;;;;61.25;13.25;;;;;;;;;;5031229;28;20029;-76
2023/05/26 05:21:02;;;;;;;56.55;10.65;;;;;;;;;;5033402;28;20527;-78
2023/05/26 05:23:30;;;;;;;46.80;7.78;;;;;;;;;;5033825;28;20108;-77
2023/05/26 05:25:56;;;;;;;50.58;7.82;;;;;;;;;;5034335;28;20026;-79
2023/05/26 05:28:22;;;;;;;48.15;8.68;;;;;;;;;;5034345;28;20033;-78
2023/05/26 05:30:48;;;;;;;68.47;10.73;;;;;;;;;;5033198;28;20060;-79
2023/05/26 05:33:14;;;;;;;57.15;8.70;;;;;;;;;;5033883;28;20084;-78
2023/05/26 05:35:40;;;;;;;65.18;8.73;;;;;;;;;;5033773;28;20033;-76
2023/05/26 05:38:06;;;;;;;55.78;9.65;;;;;;;;;;5033388;28;20025;-75
2023/05/26 05:40:32;;;;;;;52.97;8.68;;;;;;;;;;5033645;28;20057;-74
2023/05/26 05:42:58;;;;;;;52.03;7.75;;;;;;;;;;5033546;28;20497;-76
2023/05/26 05:45:24;;;;;;;55.10;8.20;;;;;;;;;;5033155;28;20065;-74
2023/05/26 05:47:50;;;;;;;54.40;7.82;;;;;;;;;;5033013;28;20364;-77
2023/05/26 05:50:16;;;;;;;55.97;8.00;;;;;;;;;;5032980;28;20126;-77
2023/05/26 05:52:42;;;;;;;45.00;7.80;;;;;;;;;;5033841;28;20034;-75
2023/05/26 05:55:08;;;;;;;58.05;8.48;;;;;;;;;;5027933;28;20121;-77
2023/05/26 05:57:34;;;;;;;62.58;7.97;;;;;;;;;;5031151;28;20036;-76
2023/05/26 06:00:00;;;;;;;98.88;10.75;;;;;;;;;;5034282;28;20026;-77
2023/05/26 06:02:26;;;;;;;61.50;8.32;;;;;;;;;;5034922;28;20526;-77
2023/05/26 06:04:52;;;;;;;53.35;8.68;;;;;;;;;;5034644;28;20025;-76
2023/05/26 06:07:18;;;;;;;55.85;8.95;;;;;;;;;;5027178;28;20025;-75
2023/05/26 06:09:44;;;;;;;59.70;8.43;;;;;;;;;;5032912;28;20061;-77
2023/05/26 06:12:10;;;;;;;55.15;8.45;;;;;;;;;;5031104;28;20095;-74
2023/05/26 06:14:38;;;;;;;51.10;8.38;;;;;;;;;;5032785;28;20487;-74
2023/05/26 06:17:04;;;;;;;51.65;7.78;;;;;;;;;;5032557;28;20108;-79
2023/05/26 06:19:30;;;;;;;55.47;8.85;;;;;;;;;;5034453;28;20021;-73
2023/05/26 06:21:56;;;;;;;57.38;7.50;;;;;;;;;;5034681;28;20026;-76
2023/05/26 06:24:22;;;;;;;50.88;7.82;;;;;;;;;;5033636;28;20018;-75
2023/05/26 06:26:48;;;;;;;41.97;6.68;;;;;;;;;;5033330;28;20482;-75
2023/05/26 06:29:16;;;;;;;51.80;9.43;;;;;;;;;;5033557;28;20041;-76
2023/05/26 06:31:42;;;;;;;59.88;8.52;;;;;;;;;;5033387;28;20026;-75
2023/05/26 06:34:08;;;;;;;41.97;7.72;;;;;;;;;;5032964;28;20125;-75
2023/05/26 06:36:35;;;;;;;51.67;7.97;;;;;;;;;;5034000;28;20021;-77
2023/05/26 06:39:01;;;;;;;52.65;8.60;;;;;;;;;;5033711;28;20104;-78
2023/05/26 06:41:27;;;;;;;55.10;8.60;;;;;;;;;;5034082;28;20393;-76
2023/05/26 06:43:54;;;;;;;53.90;7.55;;;;;;;;;;5033523;28;20365;-74
2023/05/26 06:46:20;;;;;;;50.08;8.75;;;;;;;;;;5032829;28;20029;-75
2023/05/26 06:48:46;;;;;;;64.45;9.93;;;;;;;;;;5032039;28;20028;-74
2023/05/26 06:51:12;;;;;;;43.42;7.75;;;;;;;;;;5032241;28;20028;-73
2023/05/26 06:53:38;;;;;;;50.10;8.88;;;;;;;;;;5031307;28;20057;-74
2023/05/26 06:56:05;;;;;;;55.75;7.75;;;;;;;;;;5031155;28;20021;-73
2023/05/26 06:58:31;;;;;;;63.63;8.90;;;;;;;;;;5031479;28;20021;-74
2023/05/26 07:01:02;;;;;;;46.25;8.02;;;;;;;;;;5032270;28;20032;-73
2023/05/26 07:03:28;;;;;;;56.53;8.35;;;;;;;;;;5031649;28;20089;-73
2023/05/26 07:05:57;;;;;;;41.00;7.10;;;;;;;;;;5030534;28;20498;-74
2023/05/26 07:08:24;;;;;;;40.55;7.50;;;;;;;;;;5030675;28;20235;-74
2023/05/26 07:10:50;;;;;;;41.55;7.13;;;;;;;;;;5031913;28;20036;-75
2023/05/26 07:13:16;;;;;;;39.35;6.65;;;;;;;;;;5031143;28;20025;-76
2023/05/26 07:15:43;;;;;;;40.25;7.13;;;;;;;;;;5031557;28;20104;-76
2023/05/26 07:18:09;;;;;;;36.22;6.82;;;;;;;;;;5030798;28;20017;-75
2023/05/26 07:20:35;;;;;;;42.20;7.25;;;;;;;;;;5029230;28;20098;-77
2023/05/26 07:23:02;;;;;;;38.45;7.60;;;;;;;;;;5031244;28;20044;-76
2023/05/26 07:25:28;;;;;;;39.60;6.70;;;;;;;;;;5030544;28;20045;-76
2023/05/26 07:27:54;;;;;;;37.67;6.85;;;;;;;;;;5030703;28;20429;-77
2023/05/26 07:30:20;;;;;;;40.80;6.65;;;;;;;;;;5030460;28;20076;-75
2023/05/26 07:32:46;;;;;;;39.42;6.80;;;;;;;;;;5030375;28;20079;-75
2023/05/26 07:35:12;;;;;;;49.50;8.20;;;;;;;;;;5030614;28;20033;-75
2023/05/26 07:37:39;;;;;;;45.38;6.85;;;;;;;;;;5031012;28;20021;-74
2023/05/26 07:40:05;;;;;;;42.55;8.13;;;;;;;;;;5030710;28;20030;-74
2023/05/26 07:42:31;;;;;;;41.22;7.07;;;;;;;;;;5030199;28;20383;-73
2023/05/26 07:44:57;;;;;;;41.33;7.47;;;;;;;;;;5030307;28;20113;-75
2023/05/26 07:47:24;;;;;;;37.97;7.18;;;;;;;;;;5030131;28;20472;-75
2023/05/26 07:49:50;;;;;;;45.40;6.45;;;;;;;;;;5029992;28;20025;-75
2023/05/26 07:52:16;;;;;;;43.30;11.50;;;;;;;;;;5030846;28;20040;-74
2023/05/26 07:54:42;;;;;;;46.03;7.90;;;;;;;;;;5031674;28;20033;-74
2023/05/26 07:57:08;;;;;;;41.88;8.55;;;;;;;;;;5031152;28;20021;-75
2023/05/26 07:59:34;;;;;;;36.83;6.85;;;;;;;;;;5031263;28;20502;-75
2023/05/26 08:02:00;;;;;;;40.35;7.20;;;;;;;;;;5032095;28;20041;-75
2023/05/26 08:04:26;;;;;;;35.22;6.80;;;;;;;;;;5032783;28;20032;-73
2023/05/26 08:06:52;;;;;;;31.15;6.70;;;;;;;;;;5033110;28;20025;-74
2023/05/26 08:09:18;;;;;;;33.63;7.40;;;;;;;;;;5032975;28;20124;-75
2023/05/26 08:11:44;;;;;;;34.15;6.30;;;;;;;;;;5038009;28;20026;-74
2023/05/26 08:14:10;;;;;;;33.85;6.10;;;;;;;;;;5034856;28;20029;-74
2023/05/26 08:16:36;;;;;;;29.38;6.95;;;;;;;;;;5035008;28;20030;-74
2023/05/26 08:19:02;;;;;;;34.88;7.15;;;;;;;;;;5035081;28;20029;-73
2023/05/26 08:21:28;;;;;;;49.92;8.23;;;;;;;;;;5034950;28;20109;-74
2023/05/26 08:23:54;;;;;;;31.33;5.95;;;;;;;;;;5034578;28;20104;-74
2023/05/26 08:26:20;;;;;;;29.25;5.97;;;;;;;;;;5034778;28;20017;-73
2023/05/26 08:28:46;;;;;;;31.65;6.95;;;;;;;;;;5034464;28;20044;-73
2023/05/26 08:31:14;;;;;;;38.03;8.23;;;;;;;;;;5032438;28;20472;-74
2023/05/26 08:33:40;;;;;;;31.05;6.30;;;;;;;;;;5034288;28;20029;-73
2023/05/26 08:36:06;;;;;;;35.53;6.60;;;;;;;;;;5034292;28;20160;-73
2023/05/26 08:38:32;;;;;;;40.15;6.75;;;;;;;;;;5034707;28;20038;-75
2023/05/26 08:41:00;;;;;;;37.05;7.50;;;;;;;;;;5034318;28;20030;-74
2023/05/26 08:43:33;;;;;;;30.60;5.53;;;;;;;;;;5034251;28;20048;-74
2023/05/26 08:46:02;;;;;;;27.50;5.97;;;;;;;;;;5034520;28;20025;-75
2023/05/26 08:48:29;;;;;;;24.60;5.35;;;;;;;;;;5033351;28;20056;-75
2023/05/26 08:50:55;;;;;;;32.00;6.35;;;;;;;;;;5034153;28;20112;-75
2023/05/26 08:53:24;;;;;;;33.42;6.10;;;;;;;;;;5034273;28;20029;-76
2023/05/26 08:55:50;;;;;;;29.98;7.00;;;;;;;;;;5034247;28;20383;-75
2023/05/26 08:58:17;;;;;;;31.35;6.07;;;;;;;;;;5034271;28;20372;-73
2023/05/26 09:00:45;;;;;;;38.47;6.85;;;;;;;;;;5034033;28;20436;-74
2023/05/26 09:03:12;;;;;;;33.47;6.55;;;;;;;;;;5033020;28;20116;-73
2023/05/26 09:05:38;;;;;;;35.88;6.28;;;;;;;;;;5034241;28;20025;-74
2023/05/26 09:08:04;;;;;;;36.10;6.55;;;;;;;;;;5033697;28;20029;-73
2023/05/26 09:10:31;;;;;;;36.70;6.40;;;;;;;;;;5033790;28;20394;-74
2023/05/26 09:13:06;;;;;;;37.35;6.72;;;;;;;;;;5033711;28;20053;-74
2023/05/26 09:15:32;;;;;;;36.55;6.03;;;;;;;;;;5034357;28;20117;-74
2023/05/26 09:18:02;;;;;;;34.83;6.55;;;;;;;;;;5034193;28;20065;-75
2023/05/26 09:20:29;;;;;;;26.98;5.82;;;;;;;;;;5034004;28;20029;-73
2023/05/26 09:22:58;;;;;;;28.83;6.35;;;;;;;;;;5033268;28;20028;-74
2023/05/26 09:25:34;;;;;;;38.40;6.30;;;;;;;;;;5033965;28;20487;-73
2023/05/26 09:28:00;;;;;;;39.20;6.38;;;;;;;;;;5032017;28;20021;-73
2023/05/26 09:30:35;;;;;;;37.90;7.72;;;;;;;;;;5033907;28;20057;-74
2023/05/26 09:33:01;;;;;;;33.38;7.60;;;;;;;;;;5033302;28;20025;-73
2023/05/26 09:35:27;;;;;;;27.40;5.90;;;;;;;;;;5034149;28;20030;-74
2023/05/26 09:37:55;;;;;;;31.35;6.65;;;;;;;;;;5033596;28;20025;-73
2023/05/26 09:40:21;;;;;;;33.85;6.78;;;;;;;;;;5034386;28;20026;-74
2023/05/26 09:42:53;;;;;;;41.30;7.78;;;;;;;;;;5033180;28;20043;-73
2023/05/26 09:45:19;;;;;;;22.80;5.90;;;;;;;;;;5033422;28;20018;-74
2023/05/26 09:47:45;;;;;;;32.10;6.82;;;;;;;;;;5033434;28;20037;-74
2023/05/26 09:50:11;;;;;;;32.47;6.88;;;;;;;;;;5034262;28;20029;-74
2023/05/26 09:52:37;;;;;;;34.53;7.60;;;;;;;;;;5034030;28;20137;-73
2023/05/26 09:55:04;;;;;;;37.75;6.55;;;;;;;;;;5033271;28;20069;-73
2023/05/26 09:57:31;;;;;;;30.42;6.35;;;;;;;;;;5039413;28;20621;-74
2023/05/26 09:59:57;;;;;;;30.83;5.90;;;;;;;;;;5039931;28;20097;-73
2023/05/26 10:02:24;;;;;;;26.80;6.65;;;;;;;;;;5035039;28;20104;-73
2023/05/26 10:04:51;;;;;;;42.53;14.13;;;;;;;;;;5033213;28;20024;-74
2023/05/26 10:07:20;;;;;;;38.80;9.60;;;;;;;;;;5032835;28;20040;-75
2023/05/26 10:09:53;;;;;;;33.63;6.93;;;;;;;;;;5032913;28;20112;-74
2023/05/26 10:12:30;;;;;;;40.38;7.25;;;;;;;;;;5034021;28;20021;-74
2023/05/26 10:14:56;;;;;;;39.28;7.45;;;;;;;;;;5033499;28;20036;-74
2023/05/26 10:17:23;;;;;;;36.10;7.28;;;;;;;;;;5032963;28;20109;-74
2023/05/26 10:19:49;;;;;;;32.92;8.05;;;;;;;;;;5032992;28;20403;-74
2023/05/26 10:22:21;;;;;;;31.92;6.47;;;;;;;;;;5022469;28;20029;-73
2023/05/26 10:24:53;;;;;;;35.40;7.25;;;;;;;;;;5021405;28;20029;-73
2023/05/26 10:27:27;;;;;;;32.55;7.70;;;;;;;;;;5021356;28;20120;-74
2023/05/26 10:30:00;;;;;;;29.83;6.85;;;;;;;;;;5017611;28;20492;-74
2023/05/26 10:32:41;;;;;;;32.03;7.63;;;;;;;;;;5014901;28;20041;-73
2023/05/26 10:35:24;;;;;;;35.90;7.20;;;;;;;;;;5015690;28;20025;-74
2023/05/26 10:38:11;;;;;;;27.77;6.80;;;;;;;;;;5021770;28;20091;-75
2023/05/26 10:40:40;;;;;;;29.85;7.47;;;;;;;;;;5021837;28;20127;-74
2023/05/26 10:43:25;;;;;;;24.83;6.88;;;;;;;;;;5020464;28;20676;-74
2023/05/26 10:46:01;;;;;;;32.97;7.57;;;;;;;;;;5025058;28;20387;-73
2023/05/26 10:48:36;;;;;;;28.73;6.50;;;;;;;;;;5023589;28;20033;-74
2023/05/26 10:51:20;;;;;;;31.00;7.10;;;;;;;;;;5013952;28;20064;-75
2023/05/26 10:53:47;;;;;;;33.72;8.20;;;;;;;;;;5025496;28;20054;-76
2023/05/26 10:56:13;;;;;;;29.52;7.78;;;;;;;;;;5023610;28;20100;-74
2023/05/26 10:58:41;;;;;;;27.40;7.85;;;;;;;;;;5020509;28;20057;-73
2023/05/26 11:01:19;;;;;;;27.33;8.13;;;;;;;;;;5017647;28;20022;-73
2023/05/26 11:03:46;;;;;;;25.60;7.32;;;;;;;;;;5020448;28;20464;-73
2023/05/26 11:06:13;;;;;;;26.67;8.35;;;;;;;;;;5017403;28;20098;-75
2023/05/26 11:08:45;;;;;;;27.70;8.10;;;;;;;;;;5020963;28;20025;-77
2023/05/26 11:11:11;;;;;;;38.30;9.45;;;;;;;;;;5021091;28;20021;-75
2023/05/26 11:13:41;;;;;;;29.33;7.85;;;;;;;;;;5025770;28;20022;-74
2023/05/26 11:16:17;;;;;;;27.45;7.78;;;;;;;;;;5019513;28;20033;-74
2023/05/26 11:18:56;;;;;;;28.38;8.43;;;;;;;;;;5019713;28;20024;-76
2023/05/26 11:21:26;;;;;;;28.90;8.40;;;;;;;;;;5017166;28;20095;-75
2023/05/26 11:23:53;;;;;;;34.47;8.20;;;;;;;;;;5027163;28;20076;-75
2023/05/26 11:26:19;;;;;;;34.42;9.32;;;;;;;;;;5019203;28;20026;-76
2023/05/26 11:28:46;;;;;;;25.90;8.52;;;;;;;;;;5017181;28;20029;-74
2023/05/26 11:31:12;;;;;;;28.15;7.63;;;;;;;;;;5027048;28;20116;-76
2023/05/26 11:33:39;;;;;;;33.45;7.60;;;;;;;;;;5027159;28;20399;-76
2023/05/26 11:36:05;;;;;;;31.13;8.05;;;;;;;;;;5028052;28;20026;-75
2023/05/26 11:38:31;;;;;;;35.47;7.50;;;;;;;;;;5027209;28;20037;-76
2023/05/26 11:40:58;;;;;;;33.95;7.95;;;;;;;;;;5027218;28;20021;-75
2023/05/26 11:43:24;;;;;;;31.42;7.32;;;;;;;;;;5026898;28;20018;-75
2023/05/26 11:45:53;;;;;;;28.42;6.82;;;;;;;;;;5030399;28;20515;-73
2023/05/26 11:48:19;;;;;;;27.38;6.85;;;;;;;;;;5031195;28;20068;-73
2023/05/26 11:50:45;;;;;;;27.45;6.03;;;;;;;;;;5030682;28;20049;-75
2023/05/26 11:53:11;;;;;;;28.38;6.88;;;;;;;;;;5029904;28;20027;-75
2023/05/26 11:55:37;;;;;;;31.52;6.78;;;;;;;;;;5030388;28;20407;-74
2023/05/26 11:58:03;;;;;;;31.63;6.78;;;;;;;;;;5030826;28;20514;-74
2023/05/26 12:00:31;;;;;;;33.72;6.55;;;;;;;;;;5030745;28;20025;-75
2023/05/26 12:02:57;;;;;;;28.70;6.32;;;;;;;;;;5029849;28;20467;-74
2023/05/26 12:05:26;;;;;;;36.10;6.70;;;;;;;;;;5031707;28;20022;-76
2023/05/26 12:08:21;;;;;;;25.60;7.43;;;;;;;;;;5030522;28;20017;-76
2023/05/26 12:10:47;;;;;;;38.83;7.95;;;;;;;;;;5030528;28;20113;-78
2023/05/26 12:13:13;;;;;;;38.47;7.43;;;;;;;;;;5028942;28;20031;-77
2023/05/26 12:15:39;;;;;;;24.50;6.68;;;;;;;;;;5030640;28;20475;-76
2023/05/26 12:18:05;;;;;;;33.40;6.28;;;;;;;;;;5032966;28;20029;-77
2023/05/26 12:20:32;;;;;;;32.33;6.75;;;;;;;;;;5035195;28;20490;-76
2023/05/26 12:23:05;;;;;;;29.40;6.85;;;;;;;;;;5035529;28;20480;-74
2023/05/26 12:25:31;;;;;;;26.48;6.55;;;;;;;;;;5034711;28;20075;-76
2023/05/26 12:27:58;;;;;;;33.30;7.00;;;;;;;;;;5036245;28;20037;-75
2023/05/26 12:30:26;;;;;;;30.50;6.47;;;;;;;;;;5036223;28;20060;-77
2023/05/26 12:32:52;;;;;;;33.42;7.07;;;;;;;;;;5034195;28;20025;-74
2023/05/26 12:35:18;;;;;;;32.63;6.65;;;;;;;;;;5036050;28;20033;-77
2023/05/26 12:37:44;;;;;;;24.58;5.95;;;;;;;;;;5036482;28;20033;-75
2023/05/26 12:40:11;;;;;;;27.95;7.18;;;;;;;;;;5028120;28;20028;-75
2023/05/26 12:42:37;;;;;;;23.38;6.05;;;;;;;;;;5033648;28;20029;-74
2023/05/26 12:45:04;;;;;;;32.30;7.35;;;;;;;;;;5034506;28;20033;-74
2023/05/26 12:47:30;;;;;;;30.13;7.78;;;;;;;;;;5034243;28;20032;-74
2023/05/26 12:49:56;;;;;;;35.60;7.88;;;;;;;;;;5030062;28;20083;-75
2023/05/26 12:52:23;;;;;;;28.55;7.45;;;;;;;;;;5033928;28;20026;-74
2023/05/26 12:54:49;;;;;;;36.25;7.90;;;;;;;;;;5032172;28;20071;-75
2023/05/26 12:57:15;;;;;;;37.50;6.85;;;;;;;;;;5033328;28;20096;-74
2023/05/26 12:59:41;;;;;;;31.25;7.70;;;;;;;;;;5034463;28;20060;-74
2023/05/26 13:02:08;;;;;;;33.60;6.28;;;;;;;;;;5032773;28;20021;-74
2023/05/26 13:04:35;;;;;;;38.40;6.72;;;;;;;;;;5031854;28;20075;-74
2023/05/26 13:07:01;;;;;;;36.35;7.07;;;;;;;;;;5034245;28;20018;-74
2023/05/26 13:09:29;;;;;;;27.15;6.97;;;;;;;;;;5033636;28;20091;-76
2023/05/26 13:11:55;;;;;;;28.67;6.60;;;;;;;;;;5032485;28;20036;-77
2023/05/26 13:14:21;;;;;;;42.72;13.30;;;;;;;;;;5030962;28;20037;-75
2023/05/26 13:16:47;;;;;;;28.55;6.15;;;;;;;;;;5033580;28;20088;-75
2023/05/26 13:19:13;;;;;;;29.90;6.40;;;;;;;;;;5035120;28;20088;-75
2023/05/26 13:21:39;;;;;;;27.05;5.75;;;;;;;;;;5034664;28;20029;-75
2023/05/26 13:24:05;;;;;;;29.83;6.03;;;;;;;;;;5034974;28;20022;-75
2023/05/26 13:26:31;;;;;;;26.20;6.30;;;;;;;;;;5034229;28;20032;-75
2023/05/26 13:28:58;;;;;;;27.27;6.50;;;;;;;;;;5033709;28;20133;-75
2023/05/26 13:31:24;;;;;;;30.02;6.57;;;;;;;;;;5033165;28;20029;-75
2023/05/26 13:33:51;;;;;;;24.70;6.07;;;;;;;;;;5033339;28;20037;-74
2023/05/26 13:36:17;;;;;;;27.65;6.13;;;;;;;;;;5044084;28;20029;-74
2023/05/26 13:38:43;;;;;;;23.40;6.03;;;;;;;;;;5053758;28;20036;-75
2023/05/26 13:41:11;;;;;;;25.67;5.82;;;;;;;;;;5054148;28;20032;-74
2023/05/26 13:43:37;;;;;;;21.27;5.85;;;;;;;;;;5052997;28;20094;-76
2023/05/26 13:46:03;;;;;;;21.58;4.97;;;;;;;;;;5053940;28;20052;-73
2023/05/26 13:48:29;;;;;;;34.22;10.73;;;;;;;;;;5053211;28;20474;-74
2023/05/26 13:50:55;;;;;;;24.80;6.60;;;;;;;;;;5053111;28;20023;-74
2023/05/26 13:53:22;;;;;;;33.40;6.55;;;;;;;;;;5052578;28;20067;-74
2023/05/26 13:55:49;;;;;;;23.55;5.78;;;;;;;;;;5053966;28;20029;-74
2023/05/26 13:58:15;;;;;;;26.02;5.63;;;;;;;;;;5053158;28;20410;-74
2023/05/26 14:00:41;;;;;;;16.77;5.30;;;;;;;;;;5053669;28;20036;-73
2023/05/26 14:03:08;;;;;;;28.65;7.03;;;;;;;;;;5052656;28;20436;-74
2023/05/26 14:05:34;;;;;;;26.13;6.78;;;;;;;;;;5053380;28;20502;-74
2023/05/26 14:08:02;;;;;;;24.92;5.90;;;;;;;;;;5052895;28;20037;-74
2023/05/26 14:10:30;;;;;;;29.48;6.57;;;;;;;;;;5053198;28;20104;-76
2023/05/26 14:12:56;;;;;;;20.38;5.47;;;;;;;;;;5052237;28;20104;-75
2023/05/26 14:15:22;;;;;;;20.55;5.65;;;;;;;;;;5052334;28;20040;-77
2023/05/26 14:17:49;;;;;;;23.85;5.43;;;;;;;;;;5052914;28;20033;-74
2023/05/26 14:20:15;;;;;;;24.33;6.97;;;;;;;;;;5053302;28;20021;-75
2023/05/26 14:22:41;;;;;;;22.92;5.40;;;;;;;;;;5053053;28;20040;-74
2023/05/26 14:25:07;;;;;;;24.15;4.57;;;;;;;;;;5052710;28;20088;-75
2023/05/26 14:27:33;;;;;;;24.60;6.40;;;;;;;;;;5053003;28;20104;-75